Panamoka, New York
Current Conditions -  °F | °C
As of 9:56 PM on Monday 22 Dec 2014 (Local Time) from KHWV Reporting Station
Overcast Overcast  
Wind Chill: 46°   Ceiling: 1700
Heat Index: 46°   Visibility: 10mi
Dew Point: 43°   Wind: 3mph
Humidity: 89%   Direction: NA
Pressure: 30.22"   Gusts: NA
Location:  40.8942°N, 72.8763°W
Report Text: KHWV 230256Z AUTO VRB03KT 10SM FEW009 OVC017 08/06 A3022 RMK AO2 SLP232 T00780061 58007 TSNO
Loading
Personal Weather Stations






























Interactive Weather Map New forecast layout! Learn more

10-Day Weather Forecast

Advertisements
Track Severe Weather on mobile